Tropical Cyclones
[Index]
Main Index Home Page Stock Weather Photos Extreme Storms Discussion Storm News and Storm Chasing Reports Tropical Cyclones / Hurricanes / Typhoons Weather Data and Links Wild Fires / Bushfires Weather Observation Techniques Weather Picture Catalogue Tornado Pictures and Reports Stock Video Footage and DVDs for sale
Season 2003-2004 Tropical Cyclone ELITA Track Map
Season 2003-2004 Summaries (Operational Data): [AU] [SIO] [SPAC] [SH]
<<- Previous TC | 2003-2004 Season | Next TC ->>

click for intensity scale information  Lat/long Grid: Show Hide

 Date Labels: Show Hide

Operational Tropical Cyclone Data : JTWC Advisories

Name: ELITA
Number: 0409

26 Jan 2004 06:00 UTC to 12 Feb 2004 06:00 UTC

    date/time    lat    long     hPa   cat  kts
2004-01-26 06   18.1    43.1     999         25          
2004-01-26 12   18.2    43.1     997         30          
2004-01-26 18   18.2    43.2     997         30          
2004-01-27 00   18.4    43.3     995    1    35          
2004-01-27 06   17.8    43.4     994    1    35          
2004-01-27 12   16.7    43.5     994    1    35          
2004-01-27 18   16.5    43.7     997         30          
2004-01-28 00   15.8    44.3     992    1    40          
2004-01-28 06   15.2    44.9     988    1    45          
2004-01-28 12   15.4    45.5     974    2    60          
2004-01-28 18   16.2    46.3     980    2    50          
2004-01-29 00   17.1    47.2     987    1    40          
2004-01-29 06   18.1    48.2     992    1    40          
2004-01-29 12   19.0    48.1     995    1    35          
2004-01-29 18   19.4    48.6     997         30          
2004-01-30 00   19.9    49.2     998         25          
2004-01-30 06   21.1    49.1     998         25          
2004-01-30 12   21.3    49.2     997         30          
2004-01-30 18   21.6    49.2     997         30          
2004-01-31 00   21.5    48.2     991    1    40          
2004-01-31 06   20.7    46.7     998    1    40          
2004-01-31 12   20.8    45.6                 25          
2004-01-31 18   20.8    44.6                 25          
2004-02-01 00   20.0    43.8     998         30          
2004-02-01 06   18.8    43.0     996         30          
2004-02-01 12   18.6    42.4     992    1    40          
2004-02-01 18   19.0    42.5     988    1    45          
2004-02-02 00   19.1    42.6     987    1    45          
2004-02-02 06   19.2    42.5     985    2    50          
2004-02-02 12   19.2    42.7     980    2    55          
2004-02-02 18   19.4    43.4     976    2    55          
2004-02-03 00   20.3    44.2     976    2    60          
2004-02-03 06   20.9    45.2     982    1    40          
2004-02-03 12   21.5    46.0     986    1    40          
2004-02-03 18   21.5    47.4                 30          
2004-02-04 00   22.8    48.9     995         30          
2004-02-04 06   24.8    50.3     988    1    35          
2004-02-04 12   24.0    49.2     988    1    35          
2004-02-04 18   25.3    49.3     988    1    40          
2004-02-05 00   24.7    50.6     988    1    40          
2004-02-05 06   25.5    50.6     989    1    35          
2004-02-05 12   26.6    50.3     992    1    35          
2004-02-05 18   26.0    50.7     992    1    40          
2004-02-06 00   26.7    51.3     992    1    40          
2004-02-06 06   26.9    52.3     992    1    40          
2004-02-06 12   26.3    51.5     992    1    40          
2004-02-06 18   26.2    51.9     992    1    40          
2004-02-07 00   25.4    52.2     992    1    40          
2004-02-07 06   25.1    51.8     992    1    45          
2004-02-07 12   25.8    52.7     992    1    45          
2004-02-07 18   26.3    53.2     994    1    40          
2004-02-08 00   26.2    53.6     995    1    40          
2004-02-08 06   26.1    52.8     995    1    40          
2004-02-08 12   26.1    52.9     995    1    40          
2004-02-08 18   25.9    54.3     995    1    40          
2004-02-09 00   26.2    55.2     995    1    40          
2004-02-09 06   25.7    54.2     996    1    35          
2004-02-09 12   24.8    55.2     997    1    35          
2004-02-09 18   24.4    56.4     999    1    35          
2004-02-10 00   24.3    57.0    1000         30          
2004-02-10 06   27.5    57.5     998         30          
2004-02-10 12   27.0    58.0     998         30          
2004-02-10 18   26.5    57.5    1000         30          
2004-02-11 00   27.0    57.0    1000         30          
2004-02-11 06   27.0    55.6    1000    1    40          
2004-02-11 12   27.8    54.4    1000    1    40          
2004-02-11 18   27.9    53.6    1000    1    40          
2004-02-12 00   28.9    52.5    1004         30          
2004-02-12 06   30.8    50.0    1004         30          
Winds are 10-min average.

Tropical cyclone tracks developed by Michael Bath using operational warnings and advisories and Google Maps.


[Australian Severe Weather index] [Copyright Notice] [Email Contacts] [Search This Site] [Privacy Policy]
Document: tropical_cyclone_elita.htm Updated: 28 May 2013